createdAt,value
2018-09-21T00:01:42.706Z,3.87
2018-09-21T00:04:45.832Z,4.53
2018-09-21T00:07:48.903Z,3.73
2018-09-21T00:10:52.075Z,4.10
2018-09-21T00:13:55.168Z,3.77
2018-09-21T00:16:58.242Z,4.30
2018-09-21T00:20:01.290Z,4.27
2018-09-21T00:23:04.407Z,4.37
2018-09-21T00:26:07.648Z,4.40
2018-09-21T00:29:10.717Z,4.20
2018-09-21T00:32:13.824Z,4.37
2018-09-21T00:35:16.901Z,4.30
2018-09-21T00:38:19.956Z,4.53
2018-09-21T00:41:22.991Z,3.93
2018-09-21T00:44:26.027Z,4.17
2018-09-21T00:47:29.095Z,4.43
2018-09-21T00:50:32.145Z,4.73
2018-09-21T00:53:35.187Z,3.90
2018-09-21T00:56:38.307Z,3.77
2018-09-21T00:59:41.391Z,4.57
2018-09-21T01:02:44.481Z,4.07
2018-09-21T01:05:47.639Z,4.07
2018-09-21T01:08:51.723Z,4.57
2018-09-21T01:11:54.789Z,4.10
2018-09-21T01:14:57.825Z,4.40
2018-09-21T01:18:00.900Z,4.58
2018-09-21T01:21:03.935Z,4.83
2018-09-21T01:24:06.964Z,4.30
2018-09-21T01:27:14.464Z,4.83
2018-09-21T01:30:17.488Z,4.20
2018-09-21T01:33:20.585Z,4.40
2018-09-21T01:36:23.684Z,4.20
2018-09-21T01:39:26.740Z,4.20
2018-09-21T01:42:29.820Z,3.90
2018-09-21T01:45:32.888Z,4.87
2018-09-21T01:48:35.963Z,4.63
2018-09-21T01:51:39.033Z,4.83
2018-09-21T01:54:42.153Z,4.10
2018-09-21T01:57:45.220Z,4.37
2018-09-21T02:00:48.664Z,4.23
2018-09-21T02:03:51.770Z,4.67
2018-09-21T02:06:54.848Z,4.20
2018-09-21T02:09:57.901Z,4.57
2018-09-21T02:13:00.987Z,4.30
2018-09-21T02:16:04.672Z,4.67
2018-09-21T02:19:07.804Z,4.63
2018-09-21T02:22:10.936Z,4.60
2018-09-21T02:25:13.980Z,4.50
2018-09-21T02:28:17.102Z,4.57
2018-09-21T02:31:20.229Z,4.23
2018-09-21T02:34:23.267Z,4.20
2018-09-21T02:37:26.464Z,4.40
2018-09-21T02:40:29.583Z,4.40
2018-09-21T02:43:32.616Z,4.20
2018-09-21T02:46:36.037Z,4.37
2018-09-21T02:49:39.069Z,4.40
2018-09-21T02:52:42.186Z,4.53
2018-09-21T02:55:45.211Z,4.80
2018-09-21T02:58:48.247Z,4.20
2018-09-21T03:01:51.308Z,4.50
2018-09-21T03:04:56.323Z,4.20
2018-09-21T03:07:59.361Z,4.37
2018-09-21T03:11:02.432Z,4.47
2018-09-21T03:14:05.498Z,4.67
2018-09-21T03:17:08.626Z,4.73
2018-09-21T03:20:11.658Z,4.63
2018-09-21T03:23:14.808Z,4.83
2018-09-21T03:26:17.877Z,4.40
2018-09-21T03:29:20.918Z,4.50
2018-09-21T03:32:24.005Z,4.43
2018-09-21T03:35:27.060Z,4.60
2018-09-21T03:38:30.132Z,4.33
2018-09-21T03:41:33.184Z,4.67
2018-09-21T03:44:36.259Z,4.67
2018-09-21T03:47:39.361Z,4.20
2018-09-21T03:50:42.440Z,4.83
2018-09-21T03:53:45.519Z,5.00
2018-09-21T03:56:48.580Z,4.47
2018-09-21T03:59:51.620Z,5.07
2018-09-21T04:02:54.745Z,4.80
2018-09-21T04:05:57.841Z,5.20
2018-09-21T04:09:00.996Z,5.00
2018-09-21T04:12:04.068Z,4.80
2018-09-21T04:15:07.452Z,4.97
2018-09-21T04:18:17.322Z,5.13
2018-09-21T04:21:20.388Z,4.63
2018-09-21T04:24:23.455Z,5.07
2018-09-21T04:27:26.900Z,5.13
2018-09-21T04:30:31.032Z,4.50
2018-09-21T04:33:34.227Z,4.47
2018-09-21T04:36:37.280Z,4.40
2018-09-21T04:39:40.447Z,4.27
2018-09-21T04:42:43.554Z,5.20
2018-09-21T04:45:46.740Z,4.40
2018-09-21T04:48:49.885Z,3.93
2018-09-21T04:51:53.001Z,4.50
2018-09-21T04:54:56.236Z,3.93
2018-09-21T04:57:59.283Z,4.57
2018-09-21T05:01:02.371Z,4.40
2018-09-21T05:04:05.438Z,4.33
2018-09-21T05:07:08.513Z,4.37
2018-09-21T05:10:11.588Z,4.97
2018-09-21T05:13:14.702Z,4.70
2018-09-21T05:16:17.783Z,4.30
2018-09-21T05:19:20.920Z,4.70
2018-09-21T05:22:24.104Z,4.40
2018-09-21T05:25:28.252Z,4.80
2018-09-21T05:28:31.347Z,4.70
2018-09-21T05:31:34.396Z,5.33
2018-09-21T05:34:37.828Z,4.60
2018-09-21T05:37:40.758Z,4.93
2018-09-21T05:40:43.805Z,5.13
2018-09-21T05:43:47.023Z,4.83
2018-09-21T05:46:50.151Z,5.03
2018-09-21T05:49:53.903Z,4.80
2018-09-21T05:52:56.944Z,5.00
2018-09-21T05:56:00.064Z,4.63
2018-09-21T05:59:03.438Z,5.07
2018-09-21T06:02:06.292Z,4.60
2018-09-21T06:05:09.320Z,4.87
2018-09-21T06:08:12.348Z,4.90
2018-09-21T06:11:15.504Z,4.50
2018-09-21T06:14:18.568Z,5.07
2018-09-21T06:17:21.680Z,4.37
2018-09-21T06:20:24.736Z,4.90
2018-09-21T06:23:27.820Z,4.90
2018-09-21T06:26:30.876Z,4.53
2018-09-21T06:29:33.932Z,4.80
2018-09-21T06:32:36.989Z,4.43
2018-09-21T06:35:41.118Z,4.67
2018-09-21T06:38:44.148Z,4.47
2018-09-21T06:41:47.190Z,5.07
2018-09-21T06:44:50.296Z,4.57
2018-09-21T06:47:53.414Z,4.60
2018-09-21T06:50:56.581Z,4.67
2018-09-21T06:53:59.800Z,4.40
2018-09-21T06:57:02.860Z,4.70
2018-09-21T07:00:06.035Z,4.47
2018-09-21T07:03:09.154Z,4.47
2018-09-21T07:06:12.202Z,4.50
2018-09-21T07:09:15.346Z,4.37
2018-09-21T07:12:18.465Z,4.40
2018-09-21T07:15:21.562Z,4.40
2018-09-21T07:18:24.606Z,4.43
2018-09-21T07:21:27.697Z,4.97
2018-09-21T07:24:30.774Z,4.50
2018-09-21T07:27:33.812Z,4.63
2018-09-21T07:30:36.878Z,4.50
2018-09-21T07:33:40.056Z,4.40
2018-09-21T07:36:43.096Z,4.53
2018-09-21T07:39:46.141Z,4.47
2018-09-21T07:42:49.234Z,4.77
2018-09-21T07:45:52.282Z,4.40
2018-09-21T07:48:55.708Z,4.10
2018-09-21T07:52:02.958Z,4.30
2018-09-21T07:55:06.058Z,4.27
2018-09-21T07:58:09.146Z,4.33
2018-09-21T08:01:13.296Z,4.70
2018-09-21T08:04:16.331Z,4.50
2018-09-21T08:07:19.793Z,4.93
2018-09-21T08:10:22.859Z,4.20
2018-09-21T08:13:25.932Z,4.00
2018-09-21T08:16:28.975Z,4.67
2018-09-21T08:19:32.042Z,4.73
2018-09-21T08:22:35.063Z,5.00
2018-09-21T08:25:38.108Z,4.03
2018-09-21T08:28:41.200Z,4.00
2018-09-21T08:31:44.359Z,4.40
2018-09-21T08:34:47.516Z,4.20
2018-09-21T08:37:50.608Z,4.60
2018-09-21T08:40:53.689Z,4.87
2018-09-21T08:43:56.792Z,4.77
2018-09-21T08:46:59.907Z,4.57
2018-09-21T08:50:02.964Z,4.67
2018-09-21T08:53:06.496Z,4.57
2018-09-21T08:56:09.573Z,4.40
2018-09-21T08:59:12.763Z,4.80
2018-09-21T09:02:16.008Z,4.53
2018-09-21T09:05:22.240Z,3.93
2018-09-21T09:08:25.809Z,3.93
2018-09-21T09:11:28.852Z,4.60
2018-09-21T09:14:31.921Z,3.97
2018-09-21T09:17:34.974Z,4.40
2018-09-21T09:20:38.046Z,4.53
2018-09-21T09:23:41.103Z,4.53
2018-09-21T09:26:44.186Z,4.00
2018-09-21T09:29:47.253Z,4.73
2018-09-21T09:32:50.334Z,4.60
2018-09-21T09:35:53.409Z,4.07
2018-09-21T09:38:56.477Z,4.30
2018-09-21T09:41:59.528Z,4.90
2018-09-21T09:45:02.570Z,4.87
2018-09-21T09:48:05.608Z,4.40
2018-09-21T09:51:08.666Z,4.27
2018-09-21T09:54:11.726Z,4.43
2018-09-21T09:57:14.844Z,3.80
2018-09-21T10:00:23.269Z,3.83
2018-09-21T10:03:26.498Z,3.63
2018-09-21T10:06:30.420Z,3.27
2018-09-21T10:09:33.480Z,3.70
2018-09-21T10:12:36.524Z,3.50
2018-09-21T10:15:39.816Z,3.13
2018-09-21T10:18:42.954Z,3.33
2018-09-21T10:21:45.991Z,2.87
2018-09-21T10:24:49.064Z,3.23
2018-09-21T10:27:52.469Z,3.13
2018-09-21T10:30:56.308Z,2.27
2018-09-21T10:33:59.328Z,1.70
2018-09-21T10:37:02.468Z,1.90
2018-09-21T10:40:05.732Z,2.10
2018-09-21T10:43:08.782Z,1.90
2018-09-21T10:46:11.772Z,1.80
2018-09-21T10:49:14.954Z,1.70
2018-09-21T10:52:18.015Z,1.80
2018-09-21T10:55:21.062Z,2.00
2018-09-21T10:58:24.112Z,1.90
2018-09-21T11:01:27.181Z,1.43
2018-09-21T11:04:30.476Z,2.43
2018-09-21T11:07:33.555Z,3.15
2018-09-21T11:10:36.646Z,3.47
2018-09-21T11:13:39.786Z,3.20
2018-09-21T11:16:42.899Z,2.80
2018-09-21T11:19:46.032Z,2.73
